Time;durP1;ratioP1;P1;durP2;ratioP2;P2;SDS_P1;SDS_P2;PMS_P1;PMS_P2;Temp;Humidity;BMP_temperature;BMP_pressure;BME280_temperature;BME280_humidity;BME280_pressure;Samples;Min_cycle;Max_cycle;Signal;HPM_P1;HPM_P2
2023/08/27 00:00:39;;;;;;;;;;;18.80;99.90;;;;;;5092728;28;19916;-70
2023/08/27 00:03:05;;;;;;;;;;;18.70;99.90;;;;;;5094042;28;19913;-69
2023/08/27 00:05:31;;;;;;;;;;;18.70;99.90;;;;;;5093506;28;20011;-69
2023/08/27 00:07:56;;;;;;;;;;;18.60;99.90;;;;;;5093582;28;19995;-69
2023/08/27 00:10:22;;;;;;;;;;;18.50;99.90;;;;;;5093623;28;19927;-69
2023/08/27 00:12:47;;;;;;;;;;;18.50;99.90;;;;;;5093425;28;20303;-69
2023/08/27 00:15:13;;;;;;;;;;;18.40;99.90;;;;;;5093364;28;19965;-69
2023/08/27 00:17:38;;;;;;;;;;;18.30;99.90;;;;;;5093739;28;19905;-70
2023/08/27 00:20:08;;;;;;;;;;;18.30;99.90;;;;;;5093242;28;19913;-69
2023/08/27 00:22:34;;;;;;;;;;;18.30;99.90;;;;;;5093208;28;19966;-69
2023/08/27 00:25:00;;;;;;;;;;;18.30;99.90;;;;;;5093465;28;20342;-69
2023/08/27 00:27:28;;;;;;;;;;;18.40;99.90;;;;;;5093318;28;19999;-69
2023/08/27 00:29:53;;;;;;;;;;;18.30;99.90;;;;;;5093401;28;20214;-69
2023/08/27 00:32:19;;;;;;;;;;;18.40;99.90;;;;;;5092991;28;19940;-69
2023/08/27 00:34:45;;;;;;;;;;;18.30;99.90;;;;;;5092870;28;20377;-68
2023/08/27 00:37:10;;;;;;;;;;;18.40;99.90;;;;;;5092863;28;20364;-69
2023/08/27 00:39:36;;;;;;;;;;;18.40;99.90;;;;;;5091861;28;19912;-69
2023/08/27 00:42:04;;;;;;;;;;;18.40;99.90;;;;;;5093066;28;19912;-68
2023/08/27 00:44:30;;;;;;;;;;;18.40;99.90;;;;;;5092087;28;19927;-68
2023/08/27 00:46:55;;;;;;;;;;;18.30;99.90;;;;;;5092794;28;19916;-68
2023/08/27 00:49:21;;;;;;;;;;;18.30;99.90;;;;;;5091592;28;19912;-68
2023/08/27 00:51:46;;;;;;;;;;;18.30;99.90;;;;;;5092826;28;19912;-68
2023/08/27 00:54:12;;;;;;;;;;;18.40;99.90;;;;;;5091422;28;19922;-68
2023/08/27 00:56:45;;;;;;;;;;;18.40;99.90;;;;;;5093244;28;20013;-68
2023/08/27 00:59:11;;;;;;;;;;;18.40;99.90;;;;;;5091344;28;19985;-68
2023/08/27 01:01:37;;;;;;;;;;;18.50;99.90;;;;;;5092368;28;19990;-68
2023/08/27 01:04:03;;;;;;;;;;;18.50;99.90;;;;;;5092247;28;20275;-68
2023/08/27 01:06:28;;;;;;;;;;;18.40;99.90;;;;;;5092393;28;19912;-69
2023/08/27 01:08:57;;;;;;;;;;;18.50;99.90;;;;;;5092784;28;20202;-70
2023/08/27 01:11:35;;;;;;;;;;;18.40;99.90;;;;;;5092435;28;19912;-70
2023/08/27 01:14:03;;;;;;;;;;;18.30;99.90;;;;;;5092413;28;19952;-70
2023/08/27 01:16:29;;;;;;;;;;;18.30;99.90;;;;;;5092242;28;20007;-70
2023/08/27 01:18:56;;;;;;;;;;;18.30;99.90;;;;;;5092427;28;20332;-69
2023/08/27 01:21:25;;;;;;;;;;;18.30;99.90;;;;;;5092460;28;19919;-69
2023/08/27 01:23:51;;;;;;;;;;;18.30;99.90;;;;;;5092389;28;19920;-69
2023/08/27 01:26:20;;;;;;;;;;;18.40;99.90;;;;;;5092159;28;19978;-69
2023/08/27 01:28:47;;;;;;;;;;;18.30;99.90;;;;;;5091754;28;20246;-69
2023/08/27 01:31:20;;;;;;;;;;;18.30;99.90;;;;;;5092064;28;20616;-68
2023/08/27 01:33:49;;;;;;;;;;;18.30;99.90;;;;;;5092008;28;19985;-68
2023/08/27 01:36:16;;;;;;;;;;;18.30;99.90;;;;;;5091422;28;20032;-68
2023/08/27 01:38:41;;;;;;;;;;;18.20;99.90;;;;;;5092199;28;19904;-69
2023/08/27 01:41:07;;;;;;;;;;;18.10;99.90;;;;;;5091601;28;19913;-68
2023/08/27 01:43:33;;;;;;;;;;;18.20;99.90;;;;;;5091509;28;19915;-68
2023/08/27 01:45:59;;;;;;;;;;;18.10;99.90;;;;;;5091773;28;19987;-67
2023/08/27 01:48:24;;;;;;;;;;;18.00;99.90;;;;;;5091473;28;20037;-69
2023/08/27 01:50:50;;;;;;;;;;;17.80;99.90;;;;;;5092100;28;19908;-69
2023/08/27 01:53:16;;;;;;;;;;;17.80;99.90;;;;;;5090401;28;19912;-68
2023/08/27 01:55:41;;;;;;;;;;;17.80;99.90;;;;;;5091223;28;19912;-68
2023/08/27 01:58:07;;;;;;;;;;;17.70;99.90;;;;;;5091420;28;19922;-68
2023/08/27 02:00:32;;;;;;;;;;;17.70;99.90;;;;;;5091117;28;19913;-68
2023/08/27 02:02:58;;;;;;;;;;;17.70;99.90;;;;;;5091752;28;20471;-69
2023/08/27 02:05:23;;;;;;;;;;;17.70;99.90;;;;;;5091204;28;19912;-68
2023/08/27 02:07:49;;;;;;;;;;;17.70;99.90;;;;;;5091400;28;19923;-69
2023/08/27 02:10:14;;;;;;;;;;;17.70;99.90;;;;;;5091497;28;19916;-69
2023/08/27 02:12:40;;;;;;;;;;;17.60;99.90;;;;;;5091217;28;20042;-69
2023/08/27 02:15:07;;;;;;;;;;;17.60;99.90;;;;;;5091744;28;19920;-68
2023/08/27 02:17:33;;;;;;;;;;;17.50;99.90;;;;;;5090205;28;19916;-68
2023/08/27 02:19:58;;;;;;;;;;;17.60;99.90;;;;;;5090221;28;19981;-68
2023/08/27 02:22:24;;;;;;;;;;;17.50;99.90;;;;;;5091332;28;19948;-69
2023/08/27 02:24:49;;;;;;;;;;;17.50;99.90;;;;;;5091054;28;20316;-69
2023/08/27 02:27:15;;;;;;;;;;;17.50;99.90;;;;;;5090196;28;19912;-69
2023/08/27 02:29:41;;;;;;;;;;;17.60;99.90;;;;;;5091732;28;19908;-70
2023/08/27 02:32:06;;;;;;;;;;;17.60;99.90;;;;;;5089931;28;20026;-69
2023/08/27 02:34:32;;;;;;;;;;;17.70;99.90;;;;;;5090920;28;19987;-69
2023/08/27 02:36:57;;;;;;;;;;;17.60;99.90;;;;;;5090911;28;19982;-68
2023/08/27 02:39:23;;;;;;;;;;;17.60;99.90;;;;;;5091099;28;20331;-69
2023/08/27 02:41:48;;;;;;;;;;;17.60;99.90;;;;;;5091718;28;19904;-69
2023/08/27 02:44:14;;;;;;;;;;;17.60;99.90;;;;;;5089744;28;20003;-69
2023/08/27 02:46:40;;;;;;;;;;;17.60;99.90;;;;;;5091260;28;20427;-69
2023/08/27 02:49:05;;;;;;;;;;;17.60;99.90;;;;;;5090947;28;19912;-68
2023/08/27 02:51:31;;;;;;;;;;;17.60;99.90;;;;;;5091213;28;19937;-68
2023/08/27 02:53:56;;;;;;;;;;;17.60;99.90;;;;;;5090294;28;20242;-68
2023/08/27 02:56:22;;;;;;;;;;;17.60;99.90;;;;;;5091041;28;20233;-68
2023/08/27 02:58:49;;;;;;;;;;;17.60;99.90;;;;;;5091054;28;19913;-68
2023/08/27 03:01:20;;;;;;;;;;;17.70;99.90;;;;;;5090887;28;19912;-68
2023/08/27 03:03:48;;;;;;;;;;;17.60;99.90;;;;;;5090669;28;19955;-68
2023/08/27 03:06:14;;;;;;;;;;;17.60;99.90;;;;;;5090856;28;19935;-69
2023/08/27 03:08:39;;;;;;;;;;;17.60;99.90;;;;;;5095063;28;20231;-69
2023/08/27 03:11:05;;;;;;;;;;;17.50;99.90;;;;;;5094654;28;20368;-68
2023/08/27 03:13:31;;;;;;;;;;;17.50;99.90;;;;;;5094496;28;20458;-68
2023/08/27 03:15:56;;;;;;;;;;;17.50;99.90;;;;;;5094590;28;20368;-68
2023/08/27 03:18:22;;;;;;;;;;;17.60;99.90;;;;;;5094804;28;20344;-68
2023/08/27 03:20:48;;;;;;;;;;;17.60;99.90;;;;;;5094871;28;19941;-69
2023/08/27 03:23:13;;;;;;;;;;;17.60;99.90;;;;;;5093330;28;19916;-69
2023/08/27 03:25:39;;;;;;;;;;;17.60;99.90;;;;;;5094339;28;19912;-68
2023/08/27 03:28:04;;;;;;;;;;;17.60;99.90;;;;;;5094274;28;19917;-68
2023/08/27 03:30:30;;;;;;;;;;;17.60;99.90;;;;;;5093174;28;20373;-69
2023/08/27 03:32:55;;;;;;;;;;;17.70;99.90;;;;;;5094618;28;20296;-69
2023/08/27 03:35:21;;;;;;;;;;;17.60;99.90;;;;;;5094151;28;20402;-68
2023/08/27 03:37:47;;;;;;;;;;;17.60;99.90;;;;;;5093019;28;19912;-69
2023/08/27 03:40:12;;;;;;;;;;;17.60;99.90;;;;;;5094084;28;19916;-69
2023/08/27 03:42:38;;;;;;;;;;;17.70;99.90;;;;;;5094051;28;20357;-69
2023/08/27 03:45:04;;;;;;;;;;;17.60;99.90;;;;;;5094183;28;19942;-69
2023/08/27 03:47:29;;;;;;;;;;;17.60;99.90;;;;;;5093938;28;19916;-68
2023/08/27 03:49:55;;;;;;;;;;;17.60;99.90;;;;;;5093927;28;19916;-68
2023/08/27 03:52:20;;;;;;;;;;;17.60;99.90;;;;;;5093719;28;19915;-68
2023/08/27 03:54:46;;;;;;;;;;;17.70;99.90;;;;;;5093973;28;19953;-69
2023/08/27 03:57:11;;;;;;;;;;;17.60;99.90;;;;;;5092575;28;19912;-67
2023/08/27 03:59:37;;;;;;;;;;;17.70;99.90;;;;;;5094119;28;19962;-68
2023/08/27 04:02:02;;;;;;;;;;;17.70;99.90;;;;;;5093567;28;20011;-68
2023/08/27 04:04:28;;;;;;;;;;;17.70;99.90;;;;;;5093666;28;20296;-68
2023/08/27 04:06:55;;;;;;;;;;;17.70;99.90;;;;;;5093732;28;19912;-69
2023/08/27 04:09:20;;;;;;;;;;;17.70;99.90;;;;;;5093748;28;19919;-69
2023/08/27 04:11:46;;;;;;;;;;;17.70;99.90;;;;;;5093929;28;19904;-69
2023/08/27 04:14:11;;;;;;;;;;;17.80;99.90;;;;;;5093389;28;19952;-69
2023/08/27 04:16:37;;;;;;;;;;;17.70;99.90;;;;;;5093322;28;20006;-69
2023/08/27 04:19:03;;;;;;;;;;;17.70;99.90;;;;;;5093478;28;19966;-68
2023/08/27 04:21:29;;;;;;;;;;;17.70;99.90;;;;;;5093484;28;19908;-69
2023/08/27 04:23:55;;;;;;;;;;;17.80;99.90;;;;;;5093719;28;20307;-67
2023/08/27 04:26:21;;;;;;;;;;;17.80;99.90;;;;;;5093327;28;20372;-68
2023/08/27 04:28:50;;;;;;;;;;;17.80;99.90;;;;;;5092934;28;19958;-68
2023/08/27 04:31:16;;;;;;;;;;;17.80;99.90;;;;;;5093162;28;19942;-68
2023/08/27 04:33:42;;;;;;;;;;;17.70;99.90;;;;;;5092763;28;20342;-69
2023/08/27 04:36:07;;;;;;;;;;;17.70;99.90;;;;;;5093700;28;19919;-69
2023/08/27 04:38:33;;;;;;;;;;;17.70;99.90;;;;;;5092966;28;19912;-69
2023/08/27 04:40:59;;;;;;;;;;;17.70;99.90;;;;;;5092791;28;19916;-68
2023/08/27 04:43:24;;;;;;;;;;;17.70;99.90;;;;;;5092789;28;20446;-68
2023/08/27 04:45:50;;;;;;;;;;;17.70;99.90;;;;;;5092990;28;19922;-69
2023/08/27 04:48:15;;;;;;;;;;;17.70;99.90;;;;;;5092923;28;19911;-69
2023/08/27 04:50:45;;;;;;;;;;;17.70;99.90;;;;;;5093213;28;19947;-68
2023/08/27 04:53:10;;;;;;;;;;;17.80;99.90;;;;;;5092700;28;19965;-69
2023/08/27 04:55:36;;;;;;;;;;;17.70;99.90;;;;;;5092931;28;19912;-69
2023/08/27 04:58:04;;;;;;;;;;;17.80;99.90;;;;;;5091685;28;19942;-68
2023/08/27 05:00:29;;;;;;;;;;;17.80;99.90;;;;;;5092486;28;19908;-69
2023/08/27 05:02:55;;;;;;;;;;;17.80;99.90;;;;;;5092987;28;19927;-68
2023/08/27 05:05:21;;;;;;;;;;;17.80;99.90;;;;;;5092504;28;20251;-68
2023/08/27 05:07:46;;;;;;;;;;;17.80;99.90;;;;;;5091312;28;19912;-68
2023/08/27 05:10:12;;;;;;;;;;;17.80;99.90;;;;;;5092582;28;20282;-68
2023/08/27 05:12:37;;;;;;;;;;;17.80;99.90;;;;;;5092206;28;20365;-68
2023/08/27 05:15:03;;;;;;;;;;;17.70;99.90;;;;;;5091572;28;20296;-69
2023/08/27 05:17:29;;;;;;;;;;;17.80;99.90;;;;;;5092449;28;19923;-68
2023/08/27 05:19:55;;;;;;;;;;;17.80;99.90;;;;;;5092292;28;19920;-68
2023/08/27 05:22:20;;;;;;;;;;;17.80;99.90;;;;;;5092240;28;19916;-69
2023/08/27 05:24:46;;;;;;;;;;;17.80;99.90;;;;;;5092016;28;19927;-68
2023/08/27 05:27:11;;;;;;;;;;;17.80;99.90;;;;;;5092159;28;20351;-69
2023/08/27 05:29:37;;;;;;;;;;;17.90;99.90;;;;;;5091899;28;20009;-70
2023/08/27 05:32:03;;;;;;;;;;;17.90;99.90;;;;;;5092098;28;19916;-68
2023/08/27 05:34:28;;;;;;;;;;;17.80;99.90;;;;;;5091877;28;20296;-68
2023/08/27 05:36:54;;;;;;;;;;;17.80;99.90;;;;;;5091866;28;20110;-70
2023/08/27 05:39:19;;;;;;;;;;;18.00;99.90;;;;;;5092602;28;20226;-69
2023/08/27 05:41:45;;;;;;;;;;;18.00;99.90;;;;;;5092404;28;19916;-69
2023/08/27 05:44:11;;;;;;;;;;;18.00;99.90;;;;;;5091917;28;20344;-69
2023/08/27 05:46:36;;;;;;;;;;;18.00;99.90;;;;;;5091739;28;19912;-69
2023/08/27 05:49:02;;;;;;;;;;;17.90;99.90;;;;;;5091972;28;19994;-70
2023/08/27 05:51:27;;;;;;;;;;;17.90;99.90;;;;;;5091849;28;20300;-69
2023/08/27 05:53:53;;;;;;;;;;;17.90;99.90;;;;;;5092238;28;19904;-69
2023/08/27 05:56:18;;;;;;;;;;;18.00;99.90;;;;;;5091788;28;20299;-68
2023/08/27 05:58:44;;;;;;;;;;;18.00;99.90;;;;;;5091690;28;20350;-68
2023/08/27 06:01:09;;;;;;;;;;;18.00;99.90;;;;;;5091642;28;19916;-69
2023/08/27 06:03:35;;;;;;;;;;;18.00;99.90;;;;;;5091491;28;20345;-69
2023/08/27 06:06:00;;;;;;;;;;;18.00;99.90;;;;;;5091821;28;19916;-69
2023/08/27 06:08:26;;;;;;;;;;;18.00;99.90;;;;;;5091615;28;19923;-70
2023/08/27 06:10:51;;;;;;;;;;;18.00;99.90;;;;;;5091553;28;19923;-69
2023/08/27 06:13:18;;;;;;;;;;;18.00;99.90;;;;;;5091469;28;19915;-68
2023/08/27 06:15:43;;;;;;;;;;;18.00;99.90;;;;;;5090468;28;20458;-69
2023/08/27 06:18:09;;;;;;;;;;;18.10;99.90;;;;;;5091824;28;19939;-69
2023/08/27 06:20:35;;;;;;;;;;;18.10;99.90;;;;;;5091547;28;20354;-69
2023/08/27 06:23:01;;;;;;;;;;;18.10;99.90;;;;;;5091265;28;19916;-71
2023/08/27 06:25:27;;;;;;;;;;;18.10;99.90;;;;;;5091495;28;19912;-69
2023/08/27 06:27:53;;;;;;;;;;;18.10;99.90;;;;;;5091595;28;20262;-68
2023/08/27 06:30:19;;;;;;;;;;;18.20;99.90;;;;;;5091084;28;19909;-68
2023/08/27 06:32:44;;;;;;;;;;;18.20;99.90;;;;;;5091551;28;19930;-68
2023/08/27 06:35:10;;;;;;;;;;;18.20;99.90;;;;;;5091229;28;19971;-69
2023/08/27 06:37:35;;;;;;;;;;;18.20;99.90;;;;;;5091251;28;19969;-69
2023/08/27 06:40:01;;;;;;;;;;;18.20;99.90;;;;;;5091300;28;19913;-68
2023/08/27 06:42:27;;;;;;;;;;;18.20;99.90;;;;;;5094470;28;20261;-67
2023/08/27 06:44:52;;;;;;;;;;;18.30;99.90;;;;;;5095877;28;19969;-69
2023/08/27 06:47:18;;;;;;;;;;;18.20;99.90;;;;;;5095123;28;20309;-68
2023/08/27 06:49:44;;;;;;;;;;;18.30;99.90;;;;;;5095048;28;19912;-69
2023/08/27 06:52:09;;;;;;;;;;;18.20;99.90;;;;;;5095162;28;20417;-67
2023/08/27 06:54:35;;;;;;;;;;;18.20;99.90;;;;;;5095101;28;19916;-68
2023/08/27 06:57:01;;;;;;;;;;;18.30;99.90;;;;;;5095704;28;19958;-69
2023/08/27 06:59:26;;;;;;;;;;;18.30;99.90;;;;;;5094978;28;19934;-68
2023/08/27 07:01:52;;;;;;;;;;;18.30;99.90;;;;;;5093827;28;20534;-68
2023/08/27 07:04:17;;;;;;;;;;;18.40;99.90;;;;;;5094868;28;19924;-68
2023/08/27 07:06:43;;;;;;;;;;;18.40;99.90;;;;;;5094791;28;19912;-69
2023/08/27 07:09:09;;;;;;;;;;;18.40;99.90;;;;;;5095225;28;20406;-69
2023/08/27 07:11:34;;;;;;;;;;;18.50;99.90;;;;;;5095025;28;19923;-69
2023/08/27 07:14:00;;;;;;;;;;;18.50;99.90;;;;;;5094736;28;19926;-69
2023/08/27 07:16:26;;;;;;;;;;;18.50;99.90;;;;;;5094654;28;19916;-68
2023/08/27 07:18:55;;;;;;;;;;;18.50;99.90;;;;;;5094326;28;20357;-68
2023/08/27 07:21:20;;;;;;;;;;;18.50;99.90;;;;;;5094228;28;19966;-68
2023/08/27 07:23:46;;;;;;;;;;;18.50;99.90;;;;;;5094670;28;19916;-69
2023/08/27 07:26:11;;;;;;;;;;;18.60;99.90;;;;;;5093166;28;20334;-68
2023/08/27 07:28:37;;;;;;;;;;;18.60;99.90;;;;;;5094145;28;19912;-69
2023/08/27 07:31:03;;;;;;;;;;;18.70;99.90;;;;;;5094423;28;20257;-69
2023/08/27 07:33:29;;;;;;;;;;;18.70;99.90;;;;;;5093897;28;19908;-69
2023/08/27 07:35:55;;;;;;;;;;;18.80;99.90;;;;;;5093392;28;19916;-70
2023/08/27 07:38:22;;;;;;;;;;;18.90;99.90;;;;;;5091860;28;20279;-69
2023/08/27 07:40:47;;;;;;;;;;;18.90;99.90;;;;;;5092954;28;19935;-70
2023/08/27 07:43:13;;;;;;;;;;;18.90;99.90;;;;;;5091607;28;20342;-69
2023/08/27 07:45:38;;;;;;;;;;;19.00;99.90;;;;;;5091761;28;20334;-70
2023/08/27 07:48:04;;;;;;;;;;;19.10;99.90;;;;;;5093219;28;19911;-69
2023/08/27 07:50:30;;;;;;;;;;;19.10;99.90;;;;;;5092765;28;20342;-70
2023/08/27 07:52:55;;;;;;;;;;;19.20;99.90;;;;;;5091252;28;19927;-70
2023/08/27 07:55:21;;;;;;;;;;;19.30;99.90;;;;;;5092512;28;20019;-70
2023/08/27 07:57:47;;;;;;;;;;;19.40;99.90;;;;;;5092654;28;19912;-69
2023/08/27 08:00:15;;;;;;;;;;;19.40;99.90;;;;;;5092901;28;19912;-70
2023/08/27 08:02:41;;;;;;;;;;;19.50;99.90;;;;;;5093157;28;19960;-69
2023/08/27 08:05:07;;;;;;;;;;;19.60;99.90;;;;;;5092584;28;19920;-70
2023/08/27 08:07:35;;;;;;;;;;;19.60;99.90;;;;;;5092468;28;20345;-71
2023/08/27 08:10:01;;;;;;;;;;;19.80;99.90;;;;;;5092497;28;19924;-69
2023/08/27 08:12:26;;;;;;;;;;;19.80;99.90;;;;;;5091386;28;19969;-71
2023/08/27 08:14:52;;;;;;;;;;;19.90;99.90;;;;;;5092724;28;19958;-70
2023/08/27 08:17:18;;;;;;;;;;;20.10;99.90;;;;;;5092509;28;20015;-69
2023/08/27 08:19:43;;;;;;;;;;;20.20;99.90;;;;;;5092419;28;19955;-69
2023/08/27 08:22:09;;;;;;;;;;;20.40;99.90;;;;;;5091235;28;20312;-70
2023/08/27 08:24:34;;;;;;;;;;;20.70;99.80;;;;;;5092080;28;19924;-70
2023/08/27 08:27:02;;;;;;;;;;;21.00;99.70;;;;;;5092926;28;19947;-69
2023/08/27 08:29:32;;;;;;;;;;;21.80;99.60;;;;;;5092119;28;19923;-68
2023/08/27 08:31:58;;;;;;;;;;;22.40;98.10;;;;;;5092118;28;20069;-68
2023/08/27 08:34:26;;;;;;;;;;;23.10;97.40;;;;;;5027599;28;1818725;-68
2023/08/27 08:36:52;;;;;;;;;;;23.60;96.10;;;;;;5093502;28;20124;-67
2023/08/27 08:39:18;;;;;;;;;;;24.30;96.20;;;;;;5092940;28;20121;-71
2023/08/27 08:41:46;;;;;;;;;;;25.00;94.40;;;;;;5093676;28;19911;-69
2023/08/27 08:44:25;;;;;;;;;;;25.40;93.20;;;;;;5092953;28;19924;-69
2023/08/27 08:46:51;;;;;;;;;;;25.60;92.40;;;;;;5092926;28;19916;-70
2023/08/27 08:49:18;;;;;;;;;;;26.10;91.60;;;;;;5092983;28;19923;-71
2023/08/27 08:51:44;;;;;;;;;;;26.10;90.80;;;;;;5093013;28;19913;-70
2023/08/27 08:54:11;;;;;;;;;;;26.50;90.50;;;;;;5093175;28;19943;-69
2023/08/27 08:56:41;;;;;;;;;;;26.50;90.10;;;;;;5091973;28;19912;-70
2023/08/27 08:59:07;;;;;;;;;;;27.30;89.90;;;;;;5092622;28;19919;-70
2023/08/27 09:01:34;;;;;;;;;;;27.60;86.20;;;;;;5092532;28;19920;-71
2023/08/27 09:04:01;;;;;;;;;;;27.80;85.00;;;;;;5092053;28;20061;-71
2023/08/27 09:06:26;;;;;;;;;;;27.90;84.00;;;;;;5092874;28;19908;-71
2023/08/27 09:08:52;;;;;;;;;;;27.90;84.50;;;;;;5091863;28;20253;-71
2023/08/27 09:11:19;;;;;;;;;;;27.70;83.70;;;;;;5092638;28;19912;-71
2023/08/27 09:13:45;;;;;;;;;;;27.40;84.90;;;;;;5092392;28;19927;-70
2023/08/27 09:16:11;;;;;;;;;;;27.50;83.80;;;;;;5092463;28;19912;-70
2023/08/27 09:18:36;;;;;;;;;;;27.30;83.90;;;;;;5092568;28;20322;-71
2023/08/27 09:21:02;;;;;;;;;;;27.40;83.70;;;;;;5092983;28;19908;-70
2023/08/27 09:23:28;;;;;;;;;;;27.30;84.10;;;;;;5092493;28;20016;-70
2023/08/27 09:25:56;;;;;;;;;;;27.20;84.20;;;;;;5092350;28;19927;-70
2023/08/27 09:28:22;;;;;;;;;;;26.90;84.70;;;;;;5092446;28;19912;-71
2023/08/27 09:30:47;;;;;;;;;;;26.90;86.30;;;;;;5092034;28;19991;-70
2023/08/27 09:33:13;;;;;;;;;;;26.90;83.90;;;;;;5091744;28;19920;-70
2023/08/27 09:35:39;;;;;;;;;;;26.80;82.30;;;;;;5092610;28;20308;-70
2023/08/27 09:38:05;;;;;;;;;;;26.90;83.30;;;;;;5090816;28;20357;-71
2023/08/27 09:40:30;;;;;;;;;;;27.40;82.40;;;;;;5091820;28;19955;-70
2023/08/27 09:43:06;;;;;;;;;;;27.70;82.00;;;;;;5091597;28;19918;-71
2023/08/27 09:45:35;;;;;;;;;;;28.10;80.90;;;;;;5091620;28;19920;-70
2023/08/27 09:48:02;;;;;;;;;;;27.90;80.90;;;;;;5092281;28;19908;-70
2023/08/27 09:50:29;;;;;;;;;;;28.10;80.40;;;;;;5090705;28;19912;-70
2023/08/27 09:53:04;;;;;;;;;;;28.90;78.20;;;;;;5091925;28;20249;-70
2023/08/27 09:55:31;;;;;;;;;;;28.90;78.50;;;;;;5090626;28;19924;-70
2023/08/27 09:57:57;;;;;;;;;;;28.30;75.70;;;;;;5091581;28;19912;-70
2023/08/27 10:00:24;;;;;;;;;;;29.50;75.30;;;;;;5091529;28;20010;-70
2023/08/27 10:02:49;;;;;;;;;;;29.60;70.80;;;;;;5092058;28;19908;-70
2023/08/27 10:05:15;;;;;;;;;;;29.50;69.20;;;;;;5091301;28;19920;-70
2023/08/27 10:07:40;;;;;;;;;;;30.00;69.40;;;;;;5091474;28;20000;-70
2023/08/27 10:10:06;;;;;;;;;;;30.30;69.10;;;;;;5090228;28;19912;-71
2023/08/27 10:12:32;;;;;;;;;;;29.70;67.70;;;;;;5091412;28;20027;-71
2023/08/27 10:14:59;;;;;;;;;;;29.10;68.20;;;;;;5091713;28;20318;-71
2023/08/27 10:17:25;;;;;;;;;;;28.50;69.40;;;;;;5091386;28;19919;-70
2023/08/27 10:19:51;;;;;;;;;;;28.00;71.00;;;;;;5091383;28;19916;-71
2023/08/27 10:22:18;;;;;;;;;;;27.90;71.10;;;;;;5091559;28;19916;-71
2023/08/27 10:24:45;;;;;;;;;;;27.90;72.20;;;;;;5091181;28;19920;-71
2023/08/27 10:27:10;;;;;;;;;;;28.00;71.50;;;;;;5091543;28;19912;-71
2023/08/27 10:29:37;;;;;;;;;;;28.40;71.70;;;;;;5091109;28;19939;-69
2023/08/27 10:32:03;;;;;;;;;;;28.00;70.60;;;;;;5091355;28;20073;-69
2023/08/27 10:34:30;;;;;;;;;;;27.60;72.10;;;;;;5090986;28;19924;-70
2023/08/27 10:37:04;;;;;;;;;;;27.60;72.20;;;;;;5091083;28;20011;-70
2023/08/27 10:39:30;;;;;;;;;;;27.30;73.00;;;;;;5091076;28;19908;-70
2023/08/27 10:41:56;;;;;;;;;;;26.70;74.30;;;;;;5091544;28;19912;-70
2023/08/27 10:44:21;;;;;;;;;;;26.50;76.00;;;;;;5090959;28;19916;-69
2023/08/27 10:47:05;;;;;;;;;;;26.10;78.10;;;;;;5091185;28;20338;-70
2023/08/27 10:49:36;;;;;;;;;;;25.60;80.20;;;;;;5090910;28;19912;-70
2023/08/27 10:52:11;;;;;;;;;;;25.10;82.00;;;;;;5090927;28;19912;-69
2023/08/27 10:54:38;;;;;;;;;;;24.80;82.90;;;;;;5090979;28;19912;-73
2023/08/27 10:57:21;;;;;;;;;;;24.00;86.20;;;;;;5091342;28;20374;-68
2023/08/27 10:59:47;;;;;;;;;;;23.60;89.70;;;;;;5091244;28;19923;-69
2023/08/27 11:02:15;;;;;;;;;;;23.30;91.80;;;;;;5090979;28;19916;-69
2023/08/27 11:04:42;;;;;;;;;;;23.10;93.30;;;;;;5090747;28;20274;-68
2023/08/27 11:07:33;;;;;;;;;;;22.90;94.30;;;;;;5089660;28;19916;-68
2023/08/27 11:10:02;;;;;;;;;;;22.90;95.20;;;;;;5088509;28;20326;-68
2023/08/27 11:12:34;;;;;;;;;;;22.90;95.70;;;;;;5090640;28;20509;-69
2023/08/27 11:15:09;;;;;;;;;;;22.50;95.50;;;;;;5091426;28;19923;-68
2023/08/27 11:17:35;;;;;;;;;;;22.30;95.80;;;;;;5090742;28;20218;-68
2023/08/27 11:20:16;;;;;;;;;;;22.50;95.70;;;;;;5089582;28;19927;-68
2023/08/27 11:22:53;;;;;;;;;;;22.60;95.60;;;;;;5090394;28;19912;-69
2023/08/27 11:25:19;;;;;;;;;;;22.50;95.60;;;;;;5090583;28;19916;-69
2023/08/27 11:27:45;;;;;;;;;;;22.50;96.00;;;;;;5091273;28;20338;-67
2023/08/27 11:30:11;;;;;;;;;;;22.40;96.20;;;;;;5094462;28;19912;-68
2023/08/27 11:32:37;;;;;;;;;;;22.60;96.10;;;;;;5094376;28;20025;-69
2023/08/27 11:35:05;;;;;;;;;;;22.60;96.60;;;;;;5093890;28;19935;-69
2023/08/27 11:37:32;;;;;;;;;;;22.60;96.10;;;;;;5094124;28;19918;-70
2023/08/27 11:39:57;;;;;;;;;;;22.60;95.80;;;;;;5094240;28;19931;-70
2023/08/27 11:42:23;;;;;;;;;;;22.50;95.50;;;;;;5093957;28;19912;-69
2023/08/27 11:44:52;;;;;;;;;;;22.60;96.20;;;;;;5094401;28;19934;-68
2023/08/27 11:47:18;;;;;;;;;;;22.50;95.80;;;;;;5093952;28;19969;-68
2023/08/27 11:49:44;;;;;;;;;;;22.70;96.40;;;;;;5093853;28;19916;-68
2023/08/27 11:52:14;;;;;;;;;;;22.60;94.60;;;;;;5094053;28;20010;-68
2023/08/27 11:54:39;;;;;;;;;;;22.40;94.40;;;;;;5093768;28;19993;-68
2023/08/27 11:57:06;;;;;;;;;;;22.30;94.60;;;;;;5094111;28;20345;-68
2023/08/27 11:59:32;;;;;;;;;;;22.20;95.00;;;;;;5093717;28;19915;-68
2023/08/27 12:01:58;;;;;;;;;;;22.10;95.20;;;;;;5093818;28;19916;-67
2023/08/27 12:04:27;;;;;;;;;;;21.90;94.90;;;;;;5093631;28;19920;-68
2023/08/27 12:06:56;;;;;;;;;;;21.90;94.80;;;;;;5093612;28;19923;-69
2023/08/27 12:09:23;;;;;;;;;;;22.00;95.00;;;;;;5093665;28;19965;-68
2023/08/27 12:11:48;;;;;;;;;;;21.70;95.30;;;;;;5093496;28;19909;-68
2023/08/27 12:14:20;;;;;;;;;;;21.70;95.30;;;;;;5090403;28;20232;-68
2023/08/27 12:16:46;;;;;;;;;;;21.60;95.50;;;;;;5094169;28;19976;-68
2023/08/27 12:19:11;;;;;;;;;;;21.60;95.60;;;;;;5093609;28;19916;-68
2023/08/27 12:21:47;;;;;;;;;;;21.70;95.60;;;;;;5093732;28;19923;-68
2023/08/27 12:24:28;;;;;;;;;;;21.60;95.90;;;;;;5093615;28;20011;-68
2023/08/27 12:26:54;;;;;;;;;;;21.80;95.70;;;;;;5093969;28;20300;-68
2023/08/27 12:29:20;;;;;;;;;;;21.70;95.30;;;;;;5093384;28;19912;-68
2023/08/27 12:31:45;;;;;;;;;;;21.60;95.80;;;;;;5093583;28;19916;-69
2023/08/27 12:34:11;;;;;;;;;;;21.70;95.80;;;;;;5093294;28;20037;-68
2023/08/27 12:36:36;;;;;;;;;;;21.70;95.80;;;;;;5093277;28;19939;-68
2023/08/27 12:39:03;;;;;;;;;;;21.70;95.60;;;;;;5091354;28;19915;-68
2023/08/27 12:41:29;;;;;;;;;;;21.80;95.30;;;;;;5093318;28;19923;-68
2023/08/27 12:43:55;;;;;;;;;;;21.90;95.20;;;;;;5093352;28;19916;-69
2023/08/27 12:46:24;;;;;;;;;;;21.90;95.40;;;;;;5093340;28;20057;-68
2023/08/27 12:48:49;;;;;;;;;;;22.00;95.20;;;;;;5092876;28;20388;-68
2023/08/27 12:51:15;;;;;;;;;;;22.00;95.10;;;;;;5092099;28;20030;-67
2023/08/27 12:53:41;;;;;;;;;;;21.80;94.90;;;;;;5093426;28;19908;-68
2023/08/27 12:56:07;;;;;;;;;;;21.90;95.00;;;;;;5092989;28;19991;-68
2023/08/27 12:58:32;;;;;;;;;;;21.80;95.10;;;;;;5092886;28;20068;-68
2023/08/27 13:01:00;;;;;;;;;;;21.80;95.00;;;;;;5093024;28;19912;-68
2023/08/27 13:03:26;;;;;;;;;;;21.80;94.80;;;;;;5092824;28;20074;-68
2023/08/27 13:05:54;;;;;;;;;;;21.90;94.30;;;;;;5093039;28;20203;-68
2023/08/27 13:08:20;;;;;;;;;;;21.90;94.00;;;;;;5093010;28;19945;-69
2023/08/27 13:10:46;;;;;;;;;;;21.80;93.90;;;;;;5092907;28;20016;-67
2023/08/27 13:13:11;;;;;;;;;;;21.90;93.90;;;;;;5091349;28;20362;-67
2023/08/27 13:15:37;;;;;;;;;;;21.90;94.10;;;;;;5092770;28;19993;-67
2023/08/27 13:18:02;;;;;;;;;;;22.00;93.90;;;;;;5093350;28;19921;-68
2023/08/27 13:20:28;;;;;;;;;;;21.70;94.00;;;;;;5092730;28;20308;-69
2023/08/27 13:22:53;;;;;;;;;;;21.70;94.20;;;;;;5092639;28;19916;-67
2023/08/27 13:25:19;;;;;;;;;;;21.60;94.30;;;;;;5092454;28;20231;-68
2023/08/27 13:27:45;;;;;;;;;;;21.70;94.30;;;;;;5092351;28;19969;-68
2023/08/27 13:30:10;;;;;;;;;;;21.60;94.40;;;;;;5092655;28;19912;-69
2023/08/27 13:32:36;;;;;;;;;;;21.60;94.50;;;;;;5092355;28;19916;-68
2023/08/27 13:35:05;;;;;;;;;;;21.80;94.40;;;;;;5091070;28;20351;-67
2023/08/27 13:37:30;;;;;;;;;;;21.80;94.30;;;;;;5092149;28;19984;-69
2023/08/27 13:39:56;;;;;;;;;;;21.80;94.30;;;;;;5092213;28;19993;-69
2023/08/27 13:42:21;;;;;;;;;;;21.80;94.20;;;;;;5091872;28;19915;-69
2023/08/27 13:44:47;;;;;;;;;;;22.00;94.10;;;;;;5092527;28;19918;-68
2023/08/27 13:47:13;;;;;;;;;;;22.10;94.00;;;;;;5091213;28;19912;-69
2023/08/27 13:49:38;;;;;;;;;;;22.10;94.00;;;;;;5091633;28;19912;-69
2023/08/27 13:52:04;;;;;;;;;;;22.10;93.80;;;;;;5092053;28;19923;-69
2023/08/27 13:54:30;;;;;;;;;;;22.20;93.70;;;;;;5091946;28;20384;-70
2023/08/27 13:56:55;;;;;;;;;;;22.10;93.60;;;;;;5092139;28;19964;-70
2023/08/27 13:59:21;;;;;;;;;;;22.10;93.60;;;;;;5091832;28;20014;-69
2023/08/27 14:01:48;;;;;;;;;;;22.20;93.60;;;;;;5091746;28;19916;-69
2023/08/27 14:04:14;;;;;;;;;;;22.10;93.90;;;;;;5091459;28;19931;-68
2023/08/27 14:06:39;;;;;;;;;;;22.10;93.60;;;;;;5091403;28;19912;-68
2023/08/27 14:09:05;;;;;;;;;;;22.20;93.60;;;;;;5091835;28;19943;-67
2023/08/27 14:11:31;;;;;;;;;;;22.20;93.60;;;;;;5091302;28;20020;-67